Terminal Aerodrome Forecast
Issued by NWS Pittsburgh, PA

Home | Current Version | Previous Version | Text Only | Print | Product List | Glossary On
Versions: 1 2 3 4 5 6 7 8 9 10 11 12 13 14 15 16 17 18 19 20 21
000
FTUS41 KPBZ 281000 AAC
TAFPIT
TAF AMD
KPIT 281041Z 2811/2912 24006KT P6SM SCT007 OVC014
     FM281200 30007KT P6SM -SHRASN OVC015
     FM281700 30006KT P6SM BKN025=

USA.gov is the U.S. government's official web portal to all federal, state and local government web resources and services.